Maysville, Indiana
Current Conditions -  °F | °C
As of 6:15 AM on Saturday 25 Oct 2014 (Local Time) from KDCY Reporting Station
Overcast Overcast  
Wind Chill: 59°   Ceiling: 3200
Heat Index: 59°   Visibility: 10mi
Dew Point: 55°   Wind: 8mph
Humidity: 86%   Direction: 220°SW
Pressure: 29.98"   Gusts: NA
Location:  38.6427°N, 87.1768°W
Report Text: KDCY 251115Z AUTO 22007KT 10SM BKN032 OVC060 15/13 A2998 RMK AO2 T01480125
Loading
Personal Weather Stations






























Interactive Weather Map
Tropical Storm Tracking
New forecast layout! Learn more

10-Day Weather Forecast

Advertisements
Track Severe Weather on mobile